Calumet, MN (55716)

6:43 PM CDT on July 28, 2016 (GMT -0500)
Grand Rapids | | Change Station

Elev 1293 ft 47.24 °N, 93.49 °W | Updated 22 seconds ago

Overcast
Overcast
74.5 °F
Feels Like 77 °F
N
2.6
Wind Variable Wind from ENE
Gusts 2.6 mph

Today
High -- | Low -- °F
--% Chance of Precip.
Yesterday
High -- | Low -- °F
Precip. -- in
Pressure 30.08 in
Visibility 10.0 miles
Clouds Overcast 8000 ft
Heat Index 77 °F
Dew Point 58 °F
Humidity 56%
Rainfall 0.00 in
Snow Depth Not available.
5:47 AM 8:51 PM
Waning Crescent, 27% visible
METAR KGPZ 282256Z AUTO 05005G14KT 10SM OVC080 24/14 A3008 RMK AO2 SLP185 T02390144
Pressure 30.08 in
Visibility 10.0 miles
Clouds Overcast 8000 ft
Heat Index 77 °F
Dew Point 58 °F
Humidity 56%
Rainfall 0.00 in
Snow Depth Not available.
5:47 AM 8:51 PM
Waning Crescent, 27% visible
METAR KGPZ 282256Z AUTO 05005G14KT 10SM OVC080 24/14 A3008 RMK AO2 SLP185 T02390144

10-Day Weather Forecast

Almanac

Astronomy

Jul. 28, 2016 Rise Set
Actual Time
Civil Twilight
Nautical Twilight
Astronomical Twilight
Moon
Length of Visible Light
Length of Day
Tomorrow will be .
, % of the Moon is Illuminated

Today's Extremes

State Highs State Lows

Community

WunderPhotos

Upload Photos

1,928,236 photos uploaded!

WunderBlog® & News

Nearby

Air Quality

  Air Quality AQ Index Pollutant
Not available.

Snow Depth

Station Depth Elevation

Earthquake Activity

City Distance Mag. Time & Date
Minimum magnitude displayed is 2.5.

Coastal Water Temperatures

Place Temperature

Stations

Nearby Weather Stations

Station Location Temp. Windchill Dew Point Humidity Wind Precip. Elev Updated Type
                   

Watches & Warnings

There are currently no watches in effect.